Time;durP1;ratioP1;P1;durP2;ratioP2;P2;SDS_P1;SDS_P2;PMS_P1;PMS_P2;Temp;Humidity;BMP_temperature;BMP_pressure;BME280_temperature;BME280_humidity;BME280_pressure;Samples;Min_cycle;Max_cycle;Signal;HPM_P1;HPM_P2
2022/03/05 00:00:20;;;;;;;;;;;;;;;;;;1030947;28;934;-40
2022/03/05 00:00:50;;;;;;;;;;;;;;;;;;1028624;28;1055;-42
2022/03/05 00:01:21;;;;;;;;;;;;;;;;;;1027614;28;772;-40
2022/03/05 00:01:52;;;;;;;;;;;;;;;;;;1027476;28;910;-40
2022/03/05 00:02:22;;;;;;;;;;;;;;;;;;1027503;28;820;-41
2022/03/05 00:02:52;;;;;;;;;;;;;;;;;;1027586;28;859;-40
2022/03/05 00:03:25;;;;;;;;;;;;;;;;;;1027638;28;894;-40
2022/03/05 00:03:55;;;;;;;;;;;;;;;;;;1027411;28;867;-40
2022/03/05 00:04:26;;;;;;;;;;;;;;;;;;1027626;28;954;-40
2022/03/05 00:04:56;;;;;;;;;;;;;;;;;;1027413;28;953;-41
2022/03/05 00:05:27;;;;;;;;;;;;;;;;;;1027621;28;894;-39
2022/03/05 00:05:57;;;;;;;;;;;;;;;;;;1027562;28;891;-40
2022/03/05 00:06:27;;;;;;;;;;;;;;;;;;1027493;28;934;-40
2022/03/05 00:06:59;;;;;;;;;;;;;;;;;;1027493;28;803;-41
2022/03/05 00:07:29;;;;;;;;;;;;;;;;;;1027331;28;834;-40
2022/03/05 00:08:00;;;;;;;;;;;;;;;;;;1027151;28;843;-39
2022/03/05 00:08:30;;;;;;;;;;;;;;;;;;1027573;28;889;-40
2022/03/05 00:09:00;;;;;;;;;;;;;;;;;;1027429;28;954;-42
2022/03/05 00:09:31;;;;;;;;;;;;;;;;;;1027693;28;827;-40
2022/03/05 00:10:01;;;;;;;;;;;;;;;;;;1027484;28;842;-40
2022/03/05 00:10:32;;;;;;;;;;;;;;;;;;1027370;28;930;-41
2022/03/05 00:11:02;;;;;;;;;;;;;;;;;;1027637;28;895;-40
2022/03/05 00:11:32;;;;;;;;;;;;;;;;;;1023081;29;1023;-40
2022/03/05 00:12:03;;;;;;;;;;;;;;;;;;1023332;29;840;-38
2022/03/05 00:12:34;;;;;;;;;;;;;;;;;;1023159;28;784;-40
2022/03/05 00:13:05;;;;;;;;;;;;;;;;;;1023249;28;874;-39
2022/03/05 00:13:38;;;;;;;;;;;;;;;;;;1027610;28;930;-40
2022/03/05 00:14:08;;;;;;;;;;;;;;;;;;1027413;28;771;-39
2022/03/05 00:14:39;;;;;;;;;;;;;;;;;;1027375;28;1914;-40
2022/03/05 00:15:11;;;;;;;;;;;;;;;;;;1026929;28;878;-40
2022/03/05 00:15:43;;;;;;;;;;;;;;;;;;1027500;28;887;-42
2022/03/05 00:16:13;;;;;;;;;;;;;;;;;;1027522;28;870;-40
2022/03/05 00:16:43;;;;;;;;;;;;;;;;;;1027628;28;866;-40
2022/03/05 00:17:14;;;;;;;;;;;;;;;;;;1027378;28;783;-39
2022/03/05 00:17:47;;;;;;;;;;;;;;;;;;1027555;28;973;-39
2022/03/05 00:18:17;;;;;;;;;;;;;;;;;;1027391;28;1199;-39
2022/03/05 00:18:49;;;;;;;;;;;;;;;;;;1027588;28;1124;-40
2022/03/05 00:19:21;;;;;;;;;;;;;;;;;;1027447;28;787;-39
2022/03/05 00:19:51;;;;;;;;;;;;;;;;;;1027536;28;847;-40
2022/03/05 00:20:22;;;;;;;;;;;;;;;;;;1027529;28;870;-40
2022/03/05 00:20:53;;;;;;;;;;;;;;;;;;1027306;28;787;-39
2022/03/05 00:21:23;;;;;;;;;;;;;;;;;;1027541;28;852;-40
2022/03/05 00:21:54;;;;;;;;;;;;;;;;;;1027484;28;1128;-40
2022/03/05 00:22:24;;;;;;;;;;;;;;;;;;1026856;28;1680;-40
2022/03/05 00:22:55;;;;;;;;;;;;;;;;;;1027533;28;831;-40
2022/03/05 00:23:25;;;;;;;;;;;;;;;;;;1027426;28;890;-39
2022/03/05 00:23:56;;;;;;;;;;;;;;;;;;1027486;28;835;-37
2022/03/05 00:24:27;;;;;;;;;;;;;;;;;;1027515;28;775;-40
2022/03/05 00:24:57;;;;;;;;;;;;;;;;;;1027371;28;891;-39
2022/03/05 00:25:28;;;;;;;;;;;;;;;;;;1031093;28;1213;-40
2022/03/05 00:25:58;;;;;;;;;;;;;;;;;;1031507;28;814;-40
2022/03/05 00:26:29;;;;;;;;;;;;;;;;;;1031504;28;795;-40
2022/03/05 00:26:59;;;;;;;;;;;;;;;;;;1031520;28;974;-40
2022/03/05 00:27:29;;;;;;;;;;;;;;;;;;1031237;28;803;-40
2022/03/05 00:28:00;;;;;;;;;;;;;;;;;;1031100;28;1320;-40
2022/03/05 00:28:30;;;;;;;;;;;;;;;;;;1031175;28;850;-40
2022/03/05 00:29:00;;;;;;;;;;;;;;;;;;1031179;28;910;-40
2022/03/05 00:29:31;;;;;;;;;;;;;;;;;;1027026;28;903;-40
2022/03/05 00:30:02;;;;;;;;;;;;;;;;;;1026667;28;883;-40
2022/03/05 00:30:32;;;;;;;;;;;;;;;;;;1027011;28;966;-40
2022/03/05 00:31:03;;;;;;;;;;;;;;;;;;1027489;28;930;-40
2022/03/05 00:31:34;;;;;;;;;;;;;;;;;;1031177;28;839;-41
2022/03/05 00:32:04;;;;;;;;;;;;;;;;;;1031623;28;922;-40
2022/03/05 00:32:35;;;;;;;;;;;;;;;;;;1031329;28;899;-40
2022/03/05 00:33:05;;;;;;;;;;;;;;;;;;1031581;28;800;-41
2022/03/05 00:33:36;;;;;;;;;;;;;;;;;;1031304;28;895;-41
2022/03/05 00:34:06;;;;;;;;;;;;;;;;;;1031564;28;819;-40
2022/03/05 00:34:36;;;;;;;;;;;;;;;;;;1031385;28;979;-40
2022/03/05 00:35:07;;;;;;;;;;;;;;;;;;1031556;28;1911;-40
2022/03/05 00:35:37;;;;;;;;;;;;;;;;;;1031275;28;818;-40
2022/03/05 00:36:08;;;;;;;;;;;;;;;;;;1031634;28;936;-40
2022/03/05 00:36:38;;;;;;;;;;;;;;;;;;1031344;28;977;-40
2022/03/05 00:37:10;;;;;;;;;;;;;;;;;;1031216;28;831;-40
2022/03/05 00:37:42;;;;;;;;;;;;;;;;;;1031234;28;910;-40
2022/03/05 00:38:12;;;;;;;;;;;;;;;;;;1031410;28;930;-41
2022/03/05 00:38:42;;;;;;;;;;;;;;;;;;1031475;28;815;-40
2022/03/05 00:39:13;;;;;;;;;;;;;;;;;;1031562;28;863;-40
2022/03/05 00:39:44;;;;;;;;;;;;;;;;;;1031446;28;828;-40
2022/03/05 00:40:14;;;;;;;;;;;;;;;;;;1031517;28;800;-40
2022/03/05 00:40:46;;;;;;;;;;;;;;;;;;1031358;28;796;-40
2022/03/05 00:41:16;;;;;;;;;;;;;;;;;;1031441;28;922;-40
2022/03/05 00:41:46;;;;;;;;;;;;;;;;;;1031377;28;1725;-39
2022/03/05 00:42:17;;;;;;;;;;;;;;;;;;1031389;28;922;-39
2022/03/05 00:42:47;;;;;;;;;;;;;;;;;;1031549;28;918;-40
2022/03/05 00:43:17;;;;;;;;;;;;;;;;;;1030965;28;978;-41
2022/03/05 00:43:48;;;;;;;;;;;;;;;;;;1031582;28;1140;-40
2022/03/05 00:44:18;;;;;;;;;;;;;;;;;;1031429;28;830;-40
2022/03/05 00:44:48;;;;;;;;;;;;;;;;;;1030895;28;970;-40
2022/03/05 00:45:19;;;;;;;;;;;;;;;;;;1031416;28;871;-40
2022/03/05 00:45:49;;;;;;;;;;;;;;;;;;1031228;28;1067;-40
2022/03/05 00:46:20;;;;;;;;;;;;;;;;;;1031303;28;779;-40
2022/03/05 00:46:50;;;;;;;;;;;;;;;;;;1031481;28;970;-41
2022/03/05 00:47:20;;;;;;;;;;;;;;;;;;1031367;28;957;-41
2022/03/05 00:47:51;;;;;;;;;;;;;;;;;;1031270;28;882;-40
2022/03/05 00:48:21;;;;;;;;;;;;;;;;;;1031032;28;850;-40
2022/03/05 00:48:52;;;;;;;;;;;;;;;;;;1031387;28;862;-40
2022/03/05 00:49:23;;;;;;;;;;;;;;;;;;1031554;28;909;-40
2022/03/05 00:49:53;;;;;;;;;;;;;;;;;;1031301;28;938;-40
2022/03/05 00:50:23;;;;;;;;;;;;;;;;;;1031414;28;1001;-41
2022/03/05 00:50:54;;;;;;;;;;;;;;;;;;1031344;28;890;-41
2022/03/05 00:51:25;;;;;;;;;;;;;;;;;;1031450;28;827;-40
2022/03/05 00:51:55;;;;;;;;;;;;;;;;;;1029477;28;1041;-41
2022/03/05 00:52:28;;;;;;;;;;;;;;;;;;1027126;28;851;-39
2022/03/05 00:52:59;;;;;;;;;;;;;;;;;;1027391;28;855;-40
2022/03/05 00:53:29;;;;;;;;;;;;;;;;;;1027416;28;1717;-40
2022/03/05 00:53:59;;;;;;;;;;;;;;;;;;1027376;28;871;-40
2022/03/05 00:54:30;;;;;;;;;;;;;;;;;;1027355;28;945;-40
2022/03/05 00:55:00;;;;;;;;;;;;;;;;;;1027285;28;1895;-41
2022/03/05 00:55:31;;;;;;;;;;;;;;;;;;1027379;28;994;-40
2022/03/05 00:56:01;;;;;;;;;;;;;;;;;;1027510;28;848;-40
2022/03/05 00:56:32;;;;;;;;;;;;;;;;;;1027180;28;862;-40
2022/03/05 00:57:02;;;;;;;;;;;;;;;;;;1027540;28;1183;-40
2022/03/05 00:57:33;;;;;;;;;;;;;;;;;;1027149;28;974;-41
2022/03/05 00:58:03;;;;;;;;;;;;;;;;;;1027433;28;1001;-40
2022/03/05 00:58:33;;;;;;;;;;;;;;;;;;1027409;28;958;-41
2022/03/05 00:59:04;;;;;;;;;;;;;;;;;;1027471;28;859;-41
2022/03/05 00:59:34;;;;;;;;;;;;;;;;;;1026746;28;932;-41
2022/03/05 01:00:05;;;;;;;;;;;;;;;;;;1027542;28;930;-41
2022/03/05 01:00:35;;;;;;;;;;;;;;;;;;1027208;28;1343;-41
2022/03/05 01:01:06;;;;;;;;;;;;;;;;;;1030050;28;1175;-41
2022/03/05 01:01:36;;;;;;;;;;;;;;;;;;1031265;28;867;-41
2022/03/05 01:02:07;;;;;;;;;;;;;;;;;;1031532;28;894;-40
2022/03/05 01:02:38;;;;;;;;;;;;;;;;;;1031393;28;791;-40
2022/03/05 01:03:09;;;;;;;;;;;;;;;;;;1031357;28;823;-40
2022/03/05 01:03:39;;;;;;;;;;;;;;;;;;1031351;28;914;-40
2022/03/05 01:04:09;;;;;;;;;;;;;;;;;;1031489;28;831;-41
2022/03/05 01:04:40;;;;;;;;;;;;;;;;;;1031301;28;926;-40
2022/03/05 01:05:10;;;;;;;;;;;;;;;;;;1031471;28;799;-41
2022/03/05 01:05:41;;;;;;;;;;;;;;;;;;1031327;28;986;-41
2022/03/05 01:06:11;;;;;;;;;;;;;;;;;;1031386;28;993;-40
2022/03/05 01:06:41;;;;;;;;;;;;;;;;;;1031190;28;934;-41
2022/03/05 01:07:12;;;;;;;;;;;;;;;;;;1030866;28;874;-41
2022/03/05 01:07:42;;;;;;;;;;;;;;;;;;1031305;28;997;-41
2022/03/05 01:08:12;;;;;;;;;;;;;;;;;;1031385;28;978;-41
2022/03/05 01:08:43;;;;;;;;;;;;;;;;;;1031444;28;922;-41
2022/03/05 01:09:13;;;;;;;;;;;;;;;;;;1031308;28;870;-41
2022/03/05 01:09:44;;;;;;;;;;;;;;;;;;1031313;28;859;-41
2022/03/05 01:10:14;;;;;;;;;;;;;;;;;;1031370;28;966;-41
2022/03/05 01:10:45;;;;;;;;;;;;;;;;;;1031392;28;950;-41
2022/03/05 01:11:16;;;;;;;;;;;;;;;;;;1031328;28;812;-40
2022/03/05 01:11:46;;;;;;;;;;;;;;;;;;1031439;28;949;-42
2022/03/05 01:12:16;;;;;;;;;;;;;;;;;;1030956;28;874;-40
2022/03/05 01:12:47;;;;;;;;;;;;;;;;;;1031136;28;827;-41
2022/03/05 01:13:17;;;;;;;;;;;;;;;;;;1031039;28;854;-41
2022/03/05 01:13:47;;;;;;;;;;;;;;;;;;1031011;28;823;-41
2022/03/05 01:14:18;;;;;;;;;;;;;;;;;;1030836;28;819;-41
2022/03/05 01:14:49;;;;;;;;;;;;;;;;;;1031280;28;2008;-40
2022/03/05 01:15:19;;;;;;;;;;;;;;;;;;1031318;28;922;-41
2022/03/05 01:15:49;;;;;;;;;;;;;;;;;;1031306;28;894;-40
2022/03/05 01:16:20;;;;;;;;;;;;;;;;;;1031326;28;919;-41
2022/03/05 01:16:50;;;;;;;;;;;;;;;;;;1031352;28;757;-41
2022/03/05 01:17:21;;;;;;;;;;;;;;;;;;1031529;28;827;-41
2022/03/05 01:17:51;;;;;;;;;;;;;;;;;;1031045;28;882;-41
2022/03/05 01:18:21;;;;;;;;;;;;;;;;;;1027025;28;643;-41
2022/03/05 01:18:52;;;;;;;;;;;;;;;;;;1026913;28;827;-41
2022/03/05 01:19:22;;;;;;;;;;;;;;;;;;1027270;28;796;-42
2022/03/05 01:19:52;;;;;;;;;;;;;;;;;;1026983;28;895;-41
2022/03/05 01:20:23;;;;;;;;;;;;;;;;;;1031385;28;775;-41
2022/03/05 01:20:53;;;;;;;;;;;;;;;;;;1031363;28;836;-41
2022/03/05 01:21:24;;;;;;;;;;;;;;;;;;1031366;28;926;-40
2022/03/05 01:21:54;;;;;;;;;;;;;;;;;;1030612;28;998;-41
2022/03/05 01:22:24;;;;;;;;;;;;;;;;;;1031462;28;898;-41
2022/03/05 01:22:55;;;;;;;;;;;;;;;;;;1031222;28;899;-41
2022/03/05 01:23:25;;;;;;;;;;;;;;;;;;1031466;28;938;-41
2022/03/05 01:23:55;;;;;;;;;;;;;;;;;;1031227;28;863;-41
2022/03/05 01:24:26;;;;;;;;;;;;;;;;;;1031437;28;926;-41
2022/03/05 01:24:57;;;;;;;;;;;;;;;;;;1031258;28;866;-41
2022/03/05 01:25:28;;;;;;;;;;;;;;;;;;1031330;28;1245;-41
2022/03/05 01:25:58;;;;;;;;;;;;;;;;;;1031216;28;894;-41
2022/03/05 01:26:29;;;;;;;;;;;;;;;;;;1031467;28;926;-40
2022/03/05 01:27:00;;;;;;;;;;;;;;;;;;1031281;28;878;-40
2022/03/05 01:27:30;;;;;;;;;;;;;;;;;;1026866;28;1380;-42
2022/03/05 01:28:00;;;;;;;;;;;;;;;;;;1026787;28;1233;-41
2022/03/05 01:28:30;;;;;;;;;;;;;;;;;;1026954;28;1010;-41
2022/03/05 01:29:01;;;;;;;;;;;;;;;;;;1026541;28;768;-41
2022/03/05 01:29:31;;;;;;;;;;;;;;;;;;1031188;28;990;-40
2022/03/05 01:30:04;;;;;;;;;;;;;;;;;;1031372;28;819;-40
2022/03/05 01:30:34;;;;;;;;;;;;;;;;;;1031341;28;919;-41
2022/03/05 01:31:05;;;;;;;;;;;;;;;;;;1031396;28;887;-40
2022/03/05 01:31:36;;;;;;;;;;;;;;;;;;1031258;28;785;-40
2022/03/05 01:32:06;;;;;;;;;;;;;;;;;;1031319;28;973;-40
2022/03/05 01:32:37;;;;;;;;;;;;;;;;;;1031156;28;890;-40
2022/03/05 01:33:07;;;;;;;;;;;;;;;;;;1031408;28;819;-40
2022/03/05 01:33:37;;;;;;;;;;;;;;;;;;1031176;28;911;-41
2022/03/05 01:34:08;;;;;;;;;;;;;;;;;;1031432;28;894;-40
2022/03/05 01:34:38;;;;;;;;;;;;;;;;;;1031179;28;824;-40
2022/03/05 01:35:09;;;;;;;;;;;;;;;;;;1031329;28;1911;-40
2022/03/05 01:35:39;;;;;;;;;;;;;;;;;;1031267;28;958;-41
2022/03/05 01:36:10;;;;;;;;;;;;;;;;;;1031202;28;863;-42
2022/03/05 01:36:41;;;;;;;;;;;;;;;;;;1030746;28;827;-42
2022/03/05 01:37:11;;;;;;;;;;;;;;;;;;1031299;28;933;-41
2022/03/05 01:37:41;;;;;;;;;;;;;;;;;;1031204;28;836;-41
2022/03/05 01:38:12;;;;;;;;;;;;;;;;;;1031347;28;887;-41
2022/03/05 01:38:42;;;;;;;;;;;;;;;;;;1031145;28;915;-42
2022/03/05 01:39:14;;;;;;;;;;;;;;;;;;1031416;28;836;-40
2022/03/05 01:39:44;;;;;;;;;;;;;;;;;;1031355;28;990;-40
2022/03/05 01:40:15;;;;;;;;;;;;;;;;;;1031310;28;962;-41
2022/03/05 01:40:45;;;;;;;;;;;;;;;;;;1031412;28;922;-40
2022/03/05 01:41:16;;;;;;;;;;;;;;;;;;1031242;28;1075;-41
2022/03/05 01:41:48;;;;;;;;;;;;;;;;;;1031387;28;918;-41
2022/03/05 01:42:21;;;;;;;;;;;;;;;;;;1031388;28;811;-41
2022/03/05 01:42:51;;;;;;;;;;;;;;;;;;1031050;28;890;-40
2022/03/05 01:43:22;;;;;;;;;;;;;;;;;;1031409;28;1664;-41
2022/03/05 01:43:53;;;;;;;;;;;;;;;;;;1030565;28;1009;-41
2022/03/05 01:44:23;;;;;;;;;;;;;;;;;;1031424;28;946;-40
2022/03/05 01:44:54;;;;;;;;;;;;;;;;;;1031224;28;846;-39
2022/03/05 01:45:24;;;;;;;;;;;;;;;;;;1031393;28;854;-42
2022/03/05 01:45:55;;;;;;;;;;;;;;;;;;1031039;28;1135;-41
2022/03/05 01:46:34;;;;;;;;;;;;;;;;;;1031518;28;787;-40
2022/03/05 01:47:04;;;;;;;;;;;;;;;;;;1031265;28;1767;-40
2022/03/05 01:47:37;;;;;;;;;;;;;;;;;;1031196;28;811;-40
2022/03/05 01:48:08;;;;;;;;;;;;;;;;;;1031370;28;563;-41
2022/03/05 01:48:38;;;;;;;;;;;;;;;;;;1031235;28;949;-40
2022/03/05 01:49:09;;;;;;;;;;;;;;;;;;1031362;28;911;-41
2022/03/05 01:49:40;;;;;;;;;;;;;;;;;;1031249;28;938;-41
2022/03/05 01:50:11;;;;;;;;;;;;;;;;;;1031299;28;811;-41
2022/03/05 01:50:42;;;;;;;;;;;;;;;;;;1031280;28;1000;-41
2022/03/05 01:51:12;;;;;;;;;;;;;;;;;;1030741;28;890;-40
2022/03/05 01:51:43;;;;;;;;;;;;;;;;;;1030992;28;883;-42
2022/03/05 01:52:14;;;;;;;;;;;;;;;;;;1030893;28;1629;-41
2022/03/05 01:52:44;;;;;;;;;;;;;;;;;;1031014;28;997;-41
2022/03/05 01:53:15;;;;;;;;;;;;;;;;;;1030949;28;930;-41
2022/03/05 01:53:45;;;;;;;;;;;;;;;;;;1031218;28;831;-41
2022/03/05 01:54:16;;;;;;;;;;;;;;;;;;1031401;28;899;-41
2022/03/05 01:54:46;;;;;;;;;;;;;;;;;;1031131;28;2338;-41
2022/03/05 01:55:17;;;;;;;;;;;;;;;;;;1031423;28;767;-41
2022/03/05 01:55:47;;;;;;;;;;;;;;;;;;1031341;28;910;-40
2022/03/05 01:56:18;;;;;;;;;;;;;;;;;;1031599;28;820;-42
2022/03/05 01:56:48;;;;;;;;;;;;;;;;;;1031343;28;846;-40
2022/03/05 01:57:19;;;;;;;;;;;;;;;;;;1031363;28;787;-41
2022/03/05 01:57:49;;;;;;;;;;;;;;;;;;1031043;28;790;-41
2022/03/05 01:58:20;;;;;;;;;;;;;;;;;;1031393;28;890;-41
2022/03/05 01:58:50;;;;;;;;;;;;;;;;;;1030479;28;891;-40
2022/03/05 01:59:21;;;;;;;;;;;;;;;;;;1031535;28;922;-40
2022/03/05 01:59:51;;;;;;;;;;;;;;;;;;1031097;28;867;-41
2022/03/05 02:00:22;;;;;;;;;;;;;;;;;;1031584;28;862;-40
2022/03/05 02:00:54;;;;;;;;;;;;;;;;;;1032055;28;822;-40
2022/03/05 02:01:24;;;;;;;;;;;;;;;;;;1031833;28;1033;-42
2022/03/05 02:01:55;;;;;;;;;;;;;;;;;;1031885;28;1355;-40
2022/03/05 02:02:26;;;;;;;;;;;;;;;;;;1032001;28;996;-41
2022/03/05 02:02:56;;;;;;;;;;;;;;;;;;1032089;28;827;-42
2022/03/05 02:03:28;;;;;;;;;;;;;;;;;;1032015;28;954;-41
2022/03/05 02:03:59;;;;;;;;;;;;;;;;;;1031900;28;792;-40
2022/03/05 02:04:30;;;;;;;;;;;;;;;;;;1032017;28;965;-41
2022/03/05 02:05:00;;;;;;;;;;;;;;;;;;1032068;28;795;-41
2022/03/05 02:05:31;;;;;;;;;;;;;;;;;;1031832;28;973;-40
2022/03/05 02:06:01;;;;;;;;;;;;;;;;;;1031427;28;903;-41
2022/03/05 02:06:32;;;;;;;;;;;;;;;;;;1032054;28;870;-40
2022/03/05 02:07:02;;;;;;;;;;;;;;;;;;1032002;28;871;-40
2022/03/05 02:07:33;;;;;;;;;;;;;;;;;;1031968;28;792;-40
2022/03/05 02:08:04;;;;;;;;;;;;;;;;;;1031697;28;922;-40
2022/03/05 02:08:34;;;;;;;;;;;;;;;;;;1032183;28;985;-40
2022/03/05 02:09:05;;;;;;;;;;;;;;;;;;1031906;28;879;-40
2022/03/05 02:09:35;;;;;;;;;;;;;;;;;;1032078;28;907;-40
2022/03/05 02:10:08;;;;;;;;;;;;;;;;;;1031794;28;958;-40
2022/03/05 02:10:39;;;;;;;;;;;;;;;;;;1032038;28;951;-40
2022/03/05 02:11:09;;;;;;;;;;;;;;;;;;1031915;28;906;-40
2022/03/05 02:11:40;;;;;;;;;;;;;;;;;;1032107;28;862;-40
2022/03/05 02:12:10;;;;;;;;;;;;;;;;;;1031698;28;1101;-40
2022/03/05 02:12:42;;;;;;;;;;;;;;;;;;1032147;28;870;-40
2022/03/05 02:13:12;;;;;;;;;;;;;;;;;;1031831;28;815;-40
2022/03/05 02:13:43;;;;;;;;;;;;;;;;;;1031515;28;808;-41
2022/03/05 02:14:17;;;;;;;;;;;;;;;;;;1031973;28;773;-41
2022/03/05 02:14:48;;;;;;;;;;;;;;;;;;1027785;28;1980;-41
2022/03/05 02:15:18;;;;;;;;;;;;;;;;;;1028246;28;993;-41
2022/03/05 02:15:55;;;;;;;;;;;;;;;;;;1031889;28;680;-40
2022/03/05 02:16:26;;;;;;;;;;;;;;;;;;1031872;28;906;-41
2022/03/05 02:16:56;;;;;;;;;;;;;;;;;;1032028;28;895;-40
2022/03/05 02:17:28;;;;;;;;;;;;;;;;;;1031907;28;918;-40
2022/03/05 02:17:58;;;;;;;;;;;;;;;;;;1032025;28;811;-41
2022/03/05 02:18:28;;;;;;;;;;;;;;;;;;1031771;28;783;-39
2022/03/05 02:18:59;;;;;;;;;;;;;;;;;;1031980;28;800;-41
2022/03/05 02:19:29;;;;;;;;;;;;;;;;;;1031900;28;1107;-40
2022/03/05 02:20:00;;;;;;;;;;;;;;;;;;1031918;28;934;-40
2022/03/05 02:20:30;;;;;;;;;;;;;;;;;;1031827;28;906;-40
2022/03/05 02:21:01;;;;;;;;;;;;;;;;;;1031510;28;780;-41
2022/03/05 02:21:31;;;;;;;;;;;;;;;;;;1031943;28;811;-41
2022/03/05 02:22:02;;;;;;;;;;;;;;;;;;1032008;28;858;-41
2022/03/05 02:22:33;;;;;;;;;;;;;;;;;;1031800;28;859;-41
2022/03/05 02:23:03;;;;;;;;;;;;;;;;;;1031897;28;923;-41
2022/03/05 02:23:33;;;;;;;;;;;;;;;;;;1032017;28;871;-41
2022/03/05 02:24:05;;;;;;;;;;;;;;;;;;1031941;28;784;-40
2022/03/05 02:24:37;;;;;;;;;;;;;;;;;;1032070;28;978;-41
2022/03/05 02:25:08;;;;;;;;;;;;;;;;;;1031760;28;1245;-41
2022/03/05 02:25:38;;;;;;;;;;;;;;;;;;1031983;28;827;-40
2022/03/05 02:26:08;;;;;;;;;;;;;;;;;;1031864;28;978;-40
2022/03/05 02:26:39;;;;;;;;;;;;;;;;;;1031885;28;985;-40
2022/03/05 02:27:10;;;;;;;;;;;;;;;;;;1031865;28;898;-41
2022/03/05 02:27:40;;;;;;;;;;;;;;;;;;1031871;28;799;-40
2022/03/05 02:28:11;;;;;;;;;;;;;;;;;;1031228;28;1363;-41
2022/03/05 02:28:41;;;;;;;;;;;;;;;;;;1032006;28;815;-40
2022/03/05 02:29:11;;;;;;;;;;;;;;;;;;1031720;28;816;-40
2022/03/05 02:29:42;;;;;;;;;;;;;;;;;;1032009;28;839;-40
2022/03/05 02:30:12;;;;;;;;;;;;;;;;;;1031851;28;811;-40
2022/03/05 02:30:43;;;;;;;;;;;;;;;;;;1031831;28;930;-40
2022/03/05 02:31:13;;;;;;;;;;;;;;;;;;1031947;28;883;-41
2022/03/05 02:31:44;;;;;;;;;;;;;;;;;;1031839;28;838;-41
2022/03/05 02:32:14;;;;;;;;;;;;;;;;;;1031900;28;950;-40
2022/03/05 02:32:45;;;;;;;;;;;;;;;;;;1031918;28;804;-41
2022/03/05 02:33:15;;;;;;;;;;;;;;;;;;1031781;28;855;-41
2022/03/05 02:33:45;;;;;;;;;;;;;;;;;;1031940;28;873;-41
2022/03/05 02:34:16;;;;;;;;;;;;;;;;;;1031882;28;938;-41
2022/03/05 02:34:46;;;;;;;;;;;;;;;;;;1031782;28;1902;-41
2022/03/05 02:35:17;;;;;;;;;;;;;;;;;;1031910;28;839;-41
2022/03/05 02:35:48;;;;;;;;;;;;;;;;;;1031231;28;930;-41
2022/03/05 02:36:20;;;;;;;;;;;;;;;;;;1031986;28;831;-41
2022/03/05 02:36:51;;;;;;;;;;;;;;;;;;1031897;28;815;-40
2022/03/05 02:37:21;;;;;;;;;;;;;;;;;;1031800;28;926;-40
2022/03/05 02:37:52;;;;;;;;;;;;;;;;;;1031448;28;891;-41
2022/03/05 02:38:23;;;;;;;;;;;;;;;;;;1031512;28;882;-40
2022/03/05 02:38:54;;;;;;;;;;;;;;;;;;1031726;28;903;-40
2022/03/05 02:39:24;;;;;;;;;;;;;;;;;;1031466;28;874;-40
2022/03/05 02:39:55;;;;;;;;;;;;;;;;;;1031821;28;823;-40
2022/03/05 02:40:25;;;;;;;;;;;;;;;;;;1031870;28;851;-41
2022/03/05 02:40:55;;;;;;;;;;;;;;;;;;1031974;28;559;-41
2022/03/05 02:41:26;;;;;;;;;;;;;;;;;;1031687;28;938;-40
2022/03/05 02:41:56;;;;;;;;;;;;;;;;;;1031984;28;996;-40
2022/03/05 02:42:26;;;;;;;;;;;;;;;;;;1031683;28;970;-40
2022/03/05 02:42:57;;;;;;;;;;;;;;;;;;1031614;28;842;-40
2022/03/05 02:43:27;;;;;;;;;;;;;;;;;;1031586;28;870;-40
2022/03/05 02:43:59;;;;;;;;;;;;;;;;;;1031851;28;938;-41
2022/03/05 02:44:30;;;;;;;;;;;;;;;;;;1031794;28;768;-41
2022/03/05 02:45:00;;;;;;;;;;;;;;;;;;1031888;28;899;-41
2022/03/05 02:45:31;;;;;;;;;;;;;;;;;;1031667;28;1222;-40
2022/03/05 02:46:01;;;;;;;;;;;;;;;;;;1031913;28;838;-41
2022/03/05 02:46:34;;;;;;;;;;;;;;;;;;1031702;28;966;-41
2022/03/05 02:47:04;;;;;;;;;;;;;;;;;;1031900;28;981;-41
2022/03/05 02:47:35;;;;;;;;;;;;;;;;;;1031221;28;1401;-40
2022/03/05 02:48:07;;;;;;;;;;;;;;;;;;1031565;28;835;-40
2022/03/05 02:48:37;;;;;;;;;;;;;;;;;;1031572;28;890;-40
2022/03/05 02:49:08;;;;;;;;;;;;;;;;;;1031517;28;807;-39
2022/03/05 02:49:38;;;;;;;;;;;;;;;;;;1031912;28;871;-40
2022/03/05 02:50:09;;;;;;;;;;;;;;;;;;1031765;28;818;-39
2022/03/05 02:50:39;;;;;;;;;;;;;;;;;;1031252;28;993;-40
2022/03/05 02:51:10;;;;;;;;;;;;;;;;;;1031891;28;989;-40
2022/03/05 02:51:41;;;;;;;;;;;;;;;;;;1031710;28;1645;-40
2022/03/05 02:52:11;;;;;;;;;;;;;;;;;;1031793;28;974;-41
2022/03/05 02:52:42;;;;;;;;;;;;;;;;;;1031772;28;982;-40
2022/03/05 02:53:12;;;;;;;;;;;;;;;;;;1031816;28;930;-40
2022/03/05 02:53:42;;;;;;;;;;;;;;;;;;1031864;28;844;-40
2022/03/05 02:54:13;;;;;;;;;;;;;;;;;;1031839;28;917;-40
2022/03/05 02:54:43;;;;;;;;;;;;;;;;;;1031629;28;1902;-42
2022/03/05 02:55:14;;;;;;;;;;;;;;;;;;1031915;28;970;-41
2022/03/05 02:55:44;;;;;;;;;;;;;;;;;;1031656;28;871;-41
2022/03/05 02:56:14;;;;;;;;;;;;;;;;;;1031882;28;938;-40
2022/03/05 02:56:46;;;;;;;;;;;;;;;;;;1031625;28;946;-39
2022/03/05 02:57:17;;;;;;;;;;;;;;;;;;1032008;28;957;-41
2022/03/05 02:57:47;;;;;;;;;;;;;;;;;;1031028;28;792;-41
2022/03/05 02:58:18;;;;;;;;;;;;;;;;;;1031336;28;820;-41
2022/03/05 02:58:48;;;;;;;;;;;;;;;;;;1031338;28;934;-41
2022/03/05 02:59:19;;;;;;;;;;;;;;;;;;1031569;28;799;-41
2022/03/05 02:59:49;;;;;;;;;;;;;;;;;;1031371;28;792;-41
2022/03/05 03:00:20;;;;;;;;;;;;;;;;;;1031867;28;872;-41
2022/03/05 03:00:51;;;;;;;;;;;;;;;;;;1031639;28;967;-41
2022/03/05 03:01:21;;;;;;;;;;;;;;;;;;1032224;28;1024;-40
2022/03/05 03:01:51;;;;;;;;;;;;;;;;;;1031757;28;874;-42
2022/03/05 03:02:22;;;;;;;;;;;;;;;;;;1031879;28;803;-40
2022/03/05 03:02:53;;;;;;;;;;;;;;;;;;1031727;28;811;-40
2022/03/05 03:03:23;;;;;;;;;;;;;;;;;;1031774;28;954;-41
2022/03/05 03:03:53;;;;;;;;;;;;;;;;;;1031750;28;859;-41
2022/03/05 03:04:23;;;;;;;;;;;;;;;;;;1031858;28;776;-41
2022/03/05 03:04:54;;;;;;;;;;;;;;;;;;1031602;28;835;-39
2022/03/05 03:05:24;;;;;;;;;;;;;;;;;;1031181;28;855;-41
2022/03/05 03:05:55;;;;;;;;;;;;;;;;;;1031854;28;938;-40
2022/03/05 03:06:25;;;;;;;;;;;;;;;;;;1031700;28;929;-41
2022/03/05 03:06:55;;;;;;;;;;;;;;;;;;1031754;28;1015;-40
2022/03/05 03:07:26;;;;;;;;;;;;;;;;;;1031684;28;785;-40
2022/03/05 03:07:56;;;;;;;;;;;;;;;;;;1031708;28;930;-40
2022/03/05 03:08:26;;;;;;;;;;;;;;;;;;1031727;28;958;-40
2022/03/05 03:08:57;;;;;;;;;;;;;;;;;;1031705;28;910;-40
2022/03/05 03:09:28;;;;;;;;;;;;;;;;;;1031773;28;787;-40
2022/03/05 03:09:59;;;;;;;;;;;;;;;;;;1031778;28;899;-40
2022/03/05 03:10:30;;;;;;;;;;;;;;;;;;1031652;28;919;-41
2022/03/05 03:11:00;;;;;;;;;;;;;;;;;;1031741;28;927;-41
2022/03/05 03:11:31;;;;;;;;;;;;;;;;;;1031356;28;941;-40
2022/03/05 03:12:02;;;;;;;;;;;;;;;;;;1031805;28;773;-40
2022/03/05 03:12:32;;;;;;;;;;;;;;;;;;1031386;28;930;-41
2022/03/05 03:13:03;;;;;;;;;;;;;;;;;;1031486;28;938;-41
2022/03/05 03:13:33;;;;;;;;;;;;;;;;;;1031827;28;883;-41
2022/03/05 03:14:03;;;;;;;;;;;;;;;;;;1031542;28;910;-41
2022/03/05 03:14:34;;;;;;;;;;;;;;;;;;1031821;28;891;-41
2022/03/05 03:15:05;;;;;;;;;;;;;;;;;;1031635;28;1987;-40
2022/03/05 03:15:36;;;;;;;;;;;;;;;;;;1031662;28;815;-41
2022/03/05 03:16:06;;;;;;;;;;;;;;;;;;1031756;28;879;-40
2022/03/05 03:16:37;;;;;;;;;;;;;;;;;;1031772;28;831;-40
2022/03/05 03:17:07;;;;;;;;;;;;;;;;;;1031659;28;1364;-40
2022/03/05 03:17:48;;;;;;;;;;;;;;;;;;1031738;28;929;-41
2022/03/05 03:18:18;;;;;;;;;;;;;;;;;;1031726;28;807;-40
2022/03/05 03:18:48;;;;;;;;;;;;;;;;;;1031402;28;956;-39
2022/03/05 03:19:19;;;;;;;;;;;;;;;;;;1031332;28;831;-41
2022/03/05 03:19:49;;;;;;;;;;;;;;;;;;1031398;28;891;-40
2022/03/05 03:20:21;;;;;;;;;;;;;;;;;;1030858;28;771;-40
2022/03/05 03:20:52;;;;;;;;;;;;;;;;;;1031578;28;907;-40
2022/03/05 03:21:22;;;;;;;;;;;;;;;;;;1031743;28;803;-41
2022/03/05 03:21:52;;;;;;;;;;;;;;;;;;1031758;28;829;-41
2022/03/05 03:22:23;;;;;;;;;;;;;;;;;;1031630;28;1155;-40
2022/03/05 03:22:53;;;;;;;;;;;;;;;;;;1031749;28;961;-41
2022/03/05 03:23:24;;;;;;;;;;;;;;;;;;1031578;28;926;-41
2022/03/05 03:23:54;;;;;;;;;;;;;;;;;;1031710;28;899;-42
2022/03/05 03:24:24;;;;;;;;;;;;;;;;;;1031799;28;993;-41
2022/03/05 03:24:55;;;;;;;;;;;;;;;;;;1031631;28;935;-41
2022/03/05 03:25:25;;;;;;;;;;;;;;;;;;1031690;28;1205;-39
2022/03/05 03:25:56;;;;;;;;;;;;;;;;;;1031533;28;822;-40
2022/03/05 03:26:27;;;;;;;;;;;;;;;;;;1031651;28;887;-42
2022/03/05 03:26:57;;;;;;;;;;;;;;;;;;1031782;28;819;-41
2022/03/05 03:27:27;;;;;;;;;;;;;;;;;;1031055;28;866;-41
2022/03/05 03:27:58;;;;;;;;;;;;;;;;;;1031467;28;1272;-41
2022/03/05 03:28:28;;;;;;;;;;;;;;;;;;1031663;28;931;-40
2022/03/05 03:28:58;;;;;;;;;;;;;;;;;;1031630;28;910;-41
2022/03/05 03:29:29;;;;;;;;;;;;;;;;;;1031727;28;859;-41
2022/03/05 03:29:59;;;;;;;;;;;;;;;;;;1031569;28;791;-40
2022/03/05 03:30:30;;;;;;;;;;;;;;;;;;1031708;28;839;-40
2022/03/05 03:31:00;;;;;;;;;;;;;;;;;;1031684;28;978;-41
2022/03/05 03:31:30;;;;;;;;;;;;;;;;;;1031491;28;1009;-41
2022/03/05 03:32:01;;;;;;;;;;;;;;;;;;1031636;28;993;-41
2022/03/05 03:32:31;;;;;;;;;;;;;;;;;;1031644;28;986;-41
2022/03/05 03:33:02;;;;;;;;;;;;;;;;;;1031785;28;787;-41
2022/03/05 03:33:32;;;;;;;;;;;;;;;;;;1031813;28;823;-41
2022/03/05 03:34:02;;;;;;;;;;;;;;;;;;1031397;28;895;-41
2022/03/05 03:34:34;;;;;;;;;;;;;;;;;;1031722;28;1003;-41
2022/03/05 03:35:05;;;;;;;;;;;;;;;;;;1030993;28;1914;-41
2022/03/05 03:35:37;;;;;;;;;;;;;;;;;;1031630;28;870;-40
2022/03/05 03:36:08;;;;;;;;;;;;;;;;;;1031638;28;902;-40